Time;durP1;ratioP1;P1;durP2;ratioP2;P2;SDS_P1;SDS_P2;PMS_P1;PMS_P2;Temp;Humidity;BMP_temperature;BMP_pressure;BME280_temperature;BME280_humidity;BME280_pressure;Samples;Min_cycle;Max_cycle;Signal;HPM_P1;HPM_P2
2022/12/12 00:00:24;;;;;;;10.85;6.25;;;;;;;;;;5041134;28;20064;-84
2022/12/12 00:02:52;;;;;;;10.15;5.50;;;;;;;;;;5040713;28;20037;-83
2022/12/12 00:05:25;;;;;;;13.98;5.65;;;;;;;;;;5046603;28;20053;-83
2022/12/12 00:07:52;;;;;;;;;;;;;;;;;;5039958;28;20055;-83
2022/12/12 00:10:20;;;;;;;10.50;5.03;;;;;;;;;;5054386;28;19921;-83
2022/12/12 00:12:54;;;;;;;11.20;4.88;;;;;;;;;;5041646;28;20053;-83
2022/12/12 00:15:22;;;;;;;18.92;5.75;;;;;;;;;;5038059;28;20425;-83
2022/12/12 00:17:50;;;;;;;;;;;;;;;;;;5055408;28;20050;-82
2022/12/12 00:20:17;;;;;;;11.77;5.65;;;;;;;;;;5041947;28;19921;-84
2022/12/12 00:22:50;;;;;;;12.73;5.28;;;;;;;;;;5046957;28;20049;-83
2022/12/12 00:25:18;;;;;;;;;;;;;;;;;;5049294;28;20517;-83
2022/12/12 00:27:45;;;;;;;;;;;;;;;;;;5046435;28;20293;-83
2022/12/12 00:30:14;;;;;;;14.27;4.57;;;;;;;;;;5038776;28;19921;-83
2022/12/12 00:32:42;;;;;;;14.05;7.63;;;;;;;;;;5032052;28;20045;-83
2022/12/12 00:35:10;;;;;;;12.15;4.80;;;;;;;;;;5044929;28;20402;-83
2022/12/12 00:37:38;;;;;;;17.88;5.38;;;;;;;;;;5041038;28;21083;-83
2022/12/12 00:40:06;;;;;;;18.85;5.15;;;;;;;;;;5037707;28;20064;-84
2022/12/12 00:42:39;;;;;;;12.73;5.68;;;;;;;;;;5037588;28;20049;-84
2022/12/12 00:45:08;;;;;;;15.57;6.10;;;;;;;;;;5039346;28;20057;-85
2022/12/12 00:47:37;;;;;;;10.73;6.00;;;;;;;;;;5037963;28;20053;-84
2022/12/12 00:50:05;;;;;;;15.82;6.57;;;;;;;;;;5064740;28;20053;-83
2022/12/12 00:52:38;;;;;;;15.77;6.57;;;;;;;;;;5051183;28;20397;-83
2022/12/12 00:55:07;;;;;;;8.52;3.80;;;;;;;;;;5048120;28;20041;-83
2022/12/12 00:57:34;;;;;;;10.65;4.45;;;;;;;;;;5048830;28;20497;-83
2022/12/12 01:00:08;;;;;;;10.68;5.45;;;;;;;;;;5043473;28;20056;-83
2022/12/12 01:02:43;;;;;;;12.80;4.70;;;;;;;;;;5034952;28;20054;-83
2022/12/12 01:05:16;;;;;;;10.60;5.00;;;;;;;;;;5049893;28;20048;-83
2022/12/12 01:07:49;;;;;;;10.60;5.10;;;;;;;;;;5047659;28;20541;-83
2022/12/12 01:10:21;;;;;;;9.48;5.30;;;;;;;;;;5047645;28;20501;-84
2022/12/12 01:12:49;;;;;;;;;;;;;;;;;;5039776;28;20053;-83
2022/12/12 01:15:17;;;;;;;8.82;4.65;;;;;;;;;;5043285;28;19928;-84
2022/12/12 01:17:46;;;;;;;11.65;4.80;;;;;;;;;;5044852;28;20041;-83
2022/12/12 01:20:16;;;;;;;9.50;5.22;;;;;;;;;;5048500;28;20048;-82
2022/12/12 01:22:44;;;;;;;12.00;6.20;;;;;;;;;;5045898;28;20041;-84
2022/12/12 01:25:11;;;;;;;;;;;;;;;;;;5041848;28;20045;-83
2022/12/12 01:27:39;;;;;;;13.70;6.18;;;;;;;;;;5048218;28;20270;-83
2022/12/12 01:30:13;;;;;;;10.88;4.68;;;;;;;;;;5049231;28;20049;-83
2022/12/12 01:32:40;;;;;;;9.35;4.28;;;;;;;;;;5052860;28;20382;-84
2022/12/12 01:35:10;;;;;;;9.02;4.95;;;;;;;;;;5044567;28;20494;-83
2022/12/12 01:37:43;;;;;;;14.30;6.40;;;;;;;;;;5050276;28;20045;-83
2022/12/12 01:40:14;;;;;;;12.15;5.18;;;;;;;;;;5045371;28;20045;-83
2022/12/12 01:42:42;;;;;;;9.10;4.63;;;;;;;;;;5041450;28;20034;-83
2022/12/12 01:45:09;;;;;;;;;;;;;;;;;;5072206;28;20045;-84
2022/12/12 01:47:37;;;;;;;11.00;4.50;;;;;;;;;;5044565;28;20304;-82
2022/12/12 01:50:07;;;;;;;15.23;5.30;;;;;;;;;;5041050;28;20056;-83
2022/12/12 01:52:39;;;;;;;11.27;5.78;;;;;;;;;;5044560;28;20053;-85
2022/12/12 01:55:15;;;;;;;15.80;7.30;;;;;;;;;;5066326;28;20064;-83
2022/12/12 01:57:50;;;;;;;12.10;5.45;;;;;;;;;;5077591;28;20055;-83
2022/12/12 02:00:23;;;;;;;9.68;4.47;;;;;;;;;;5079992;28;20702;-83
2022/12/12 02:02:52;;;;;;;;;;;;;;;;;;5048281;28;20050;-83
2022/12/12 02:05:22;;;;;;;13.50;4.72;;;;;;;;;;5035485;28;19921;-83
2022/12/12 02:07:52;;;;;;;15.35;6.03;;;;;;;;;;5040387;28;20056;-83
2022/12/12 02:10:25;;;;;;;9.60;4.82;;;;;;;;;;5047270;28;20061;-84
2022/12/12 02:13:03;;;;;;;12.15;5.63;;;;;;;;;;5047713;28;20055;-82
2022/12/12 02:15:34;;;;;;;10.77;4.72;;;;;;;;;;5059561;28;20060;-83
2022/12/12 02:18:08;;;;;;;7.22;4.07;;;;;;;;;;5048691;28;20041;-83
2022/12/12 02:20:56;;;;;;;9.82;5.00;;;;;;;;;;5039538;28;20049;-83
2022/12/12 02:23:48;;;;;;;5.93;3.22;;;;;;;;;;5056184;28;20053;-84
2022/12/12 02:26:29;;;;;;;10.77;5.53;;;;;;;;;;5045203;28;20045;-83
2022/12/12 02:29:11;;;;;;;11.77;5.50;;;;;;;;;;5076617;28;21019;-84
2022/12/12 02:31:45;;;;;;;14.65;6.43;;;;;;;;;;5039364;28;20053;-83
2022/12/12 02:34:16;;;;;;;8.68;5.13;;;;;;;;;;5047230;28;20041;-83
2022/12/12 02:36:51;;;;;;;16.55;6.75;;;;;;;;;;5053545;28;20049;-83
2022/12/12 02:39:22;;;;;;;12.63;4.55;;;;;;;;;;5043868;28;20061;-82
2022/12/12 02:41:57;;;;;;;8.80;4.80;;;;;;;;;;5047572;28;20049;-83
2022/12/12 02:44:27;;;;;;;10.98;4.68;;;;;;;;;;5043217;28;20056;-82
2022/12/12 02:47:01;;;;;;;13.77;5.50;;;;;;;;;;5044741;28;20055;-84
2022/12/12 02:49:36;;;;;;;13.70;5.95;;;;;;;;;;5041643;28;20505;-82
2022/12/12 02:52:06;;;;;;;10.85;5.47;;;;;;;;;;5045082;28;20051;-83
2022/12/12 02:54:38;;;;;;;12.48;5.35;;;;;;;;;;5038407;28;20053;-83
2022/12/12 02:57:06;;;;;;;;;;;;;;;;;;5047548;28;20060;-82
2022/12/12 02:59:35;;;;;;;10.02;5.22;;;;;;;;;;5046683;28;19921;-82
2022/12/12 03:02:21;;;;;;;7.13;4.47;;;;;;;;;;5050506;28;20044;-82
2022/12/12 03:07:55;;;;;;;7.82;4.10;;;;;;;;;;5041155;28;20049;-83
2022/12/12 03:10:36;;;;;;;8.70;5.00;;;;;;;;;;5048633;28;20521;-82
2022/12/12 03:13:11;;;;;;;14.30;5.30;;;;;;;;;;5037662;28;20057;-82
2022/12/12 03:15:48;;;;;;;7.55;3.75;;;;;;;;;;5039062;28;20060;-83
2022/12/12 03:18:24;;;;;;;12.02;5.43;;;;;;;;;;5037060;28;20049;-83
2022/12/12 03:20:55;;;;;;;14.05;5.55;;;;;;;;;;5036506;28;20056;-83
2022/12/12 03:23:26;;;;;;;14.20;5.13;;;;;;;;;;5048607;28;20409;-83
2022/12/12 03:26:00;;;;;;;14.57;5.38;;;;;;;;;;5042072;28;20045;-83
2022/12/12 03:28:35;;;;;;;9.52;5.35;;;;;;;;;;5040596;28;20056;-83
2022/12/12 03:31:10;;;;;;;12.10;5.97;;;;;;;;;;5041112;28;20492;-82
2022/12/12 03:33:41;;;;;;;9.00;4.85;;;;;;;;;;5035660;28;20052;-83
2022/12/12 03:36:14;;;;;;;13.32;5.32;;;;;;;;;;5055221;28;20068;-82
2022/12/12 03:38:55;;;;;;;9.25;4.32;;;;;;;;;;5044037;28;20060;-82
2022/12/12 03:41:25;;;;;;;11.10;4.38;;;;;;;;;;5042787;28;20415;-83
2022/12/12 03:44:03;;;;;;;6.00;3.78;;;;;;;;;;5049552;28;20068;-83
2022/12/12 03:46:39;;;;;;;8.20;4.05;;;;;;;;;;5075701;28;20049;-83
2022/12/12 03:49:15;;;;;;;20.20;6.80;;;;;;;;;;5080721;28;20671;-83
2022/12/12 03:51:47;;;;;;;13.85;4.82;;;;;;;;;;5035090;28;20049;-82
2022/12/12 03:54:17;;;;;;;13.30;5.85;;;;;;;;;;5036595;28;20046;-83
2022/12/12 03:56:47;;;;;;;12.55;5.88;;;;;;;;;;5048098;28;20409;-83
2022/12/12 03:59:19;;;;;;;8.07;5.28;;;;;;;;;;5052158;28;20397;-82
2022/12/12 04:01:55;;;;;;;10.23;6.13;;;;;;;;;;5041440;28;20053;-82
2022/12/12 04:04:30;;;;;;;10.45;5.22;;;;;;;;;;5042981;28;20049;-82
2022/12/12 04:07:08;;;;;;;8.73;4.53;;;;;;;;;;5043884;28;20043;-84
2022/12/12 04:15:29;;;;;;;9.30;5.30;;;;;;;;;;5044837;28;20060;-84
2022/12/12 04:18:01;;;;;;;8.63;4.30;;;;;;;;;;5074434;28;20050;-82
2022/12/12 04:23:37;;;;;;;9.90;5.03;;;;;;;;;;5048821;28;20438;-82
2022/12/12 04:29:06;;;;;;;8.07;5.35;;;;;;;;;;5054370;28;20051;-82
2022/12/12 04:31:36;;;;;;;15.98;5.88;;;;;;;;;;5052895;28;20037;-83
2022/12/12 04:34:05;;;;;;;12.52;5.38;;;;;;;;;;5045564;28;20037;-82
2022/12/12 04:36:34;;;;;;;12.95;6.30;;;;;;;;;;5079019;28;20049;-82
2022/12/12 04:39:04;;;;;;;14.27;5.50;;;;;;;;;;5048234;28;20151;-82
2022/12/12 04:41:38;;;;;;;10.57;4.25;;;;;;;;;;5043547;28;20052;-83
2022/12/12 04:44:12;;;;;;;10.52;4.60;;;;;;;;;;5064746;28;20053;-83
2022/12/12 04:46:46;;;;;;;10.57;5.72;;;;;;;;;;5039809;28;20067;-82
2022/12/12 04:49:21;;;;;;;10.57;5.15;;;;;;;;;;5052216;28;20049;-82
2022/12/12 04:51:56;;;;;;;8.45;4.57;;;;;;;;;;5050198;28;20048;-82
2022/12/12 04:54:34;;;;;;;10.63;4.50;;;;;;;;;;5046906;28;20068;-82
2022/12/12 04:57:09;;;;;;;7.90;4.88;;;;;;;;;;5049283;28;20052;-82
2022/12/12 04:59:42;;;;;;;10.23;4.53;;;;;;;;;;5075693;28;20053;-82
2022/12/12 05:02:18;;;;;;;10.60;4.70;;;;;;;;;;5047291;28;20056;-82
2022/12/12 05:04:49;;;;;;;13.35;4.85;;;;;;;;;;5040602;28;20063;-81
2022/12/12 05:07:21;;;;;;;8.50;5.22;;;;;;;;;;5053719;28;20052;-82
2022/12/12 05:09:50;;;;;;;11.88;6.53;;;;;;;;;;5050354;28;20498;-83
2022/12/12 05:12:19;;;;;;;14.60;5.68;;;;;;;;;;5049304;28;20053;-82
2022/12/12 05:14:48;;;;;;;15.55;4.55;;;;;;;;;;5074712;28;20050;-83
2022/12/12 05:17:20;;;;;;;10.65;4.75;;;;;;;;;;5042378;28;20057;-82
2022/12/12 05:19:53;;;;;;;11.18;5.13;;;;;;;;;;5052595;28;20053;-82
2022/12/12 05:22:20;;;;;;;10.32;4.70;;;;;;;;;;5052867;28;20057;-82
2022/12/12 05:24:54;;;;;;;8.90;4.65;;;;;;;;;;5046274;28;20056;-82
2022/12/12 05:27:22;;;;;;;8.80;4.22;;;;;;;;;;5049401;28;20536;-82
2022/12/12 05:29:55;;;;;;;11.88;5.32;;;;;;;;;;5037205;28;20045;-82
2022/12/12 05:32:23;;;;;;;;;;;;;;;;;;5055847;28;20057;-83
2022/12/12 05:34:55;;;;;;;9.13;4.95;;;;;;;;;;5073425;28;19921;-82
2022/12/12 05:37:28;;;;;;;6.03;3.25;;;;;;;;;;5049266;28;20037;-82
2022/12/12 05:40:03;;;;;;;19.73;5.78;;;;;;;;;;5044564;28;20056;-83
2022/12/12 05:42:30;;;;;;;8.43;5.03;;;;;;;;;;5049661;28;20049;-83
2022/12/12 05:45:04;;;;;;;18.17;5.63;;;;;;;;;;5048578;28;20706;-82
2022/12/12 05:47:31;;;;;;;8.68;4.40;;;;;;;;;;5048132;28;20045;-82
2022/12/12 05:49:59;;;;;;;;;;;;;;;;;;5041012;28;20060;-82
2022/12/12 05:52:27;;;;;;;;;;;;;;;;;;5071594;28;19928;-83
2022/12/12 05:54:54;;;;;;;;;;;;;;;;;;5042793;28;19921;-82
2022/12/12 05:57:28;;;;;;;8.20;3.88;;;;;;;;;;5051076;28;19944;-83
2022/12/12 05:59:56;;;;;;;10.27;4.95;;;;;;;;;;5051823;28;20501;-82
2022/12/12 06:02:31;;;;;;;13.20;6.10;;;;;;;;;;5052653;28;20045;-82
2022/12/12 06:04:59;;;;;;;;;;;;;;;;;;5046325;28;20044;-82
2022/12/12 06:07:27;;;;;;;;;;;;;;;;;;5042192;28;19921;-82
2022/12/12 06:09:54;;;;;;;8.10;4.15;;;;;;;;;;5041344;28;19928;-82
2022/12/12 06:12:29;;;;;;;14.10;5.50;;;;;;;;;;5057772;28;20057;-82
2022/12/12 06:14:57;;;;;;;11.18;6.18;;;;;;;;;;5042418;28;20037;-82
2022/12/12 06:17:24;;;;;;;9.50;5.32;;;;;;;;;;5047057;28;20418;-83
2022/12/12 06:19:52;;;;;;;13.25;4.97;;;;;;;;;;5042874;28;20132;-83
2022/12/12 06:22:25;;;;;;;7.20;4.22;;;;;;;;;;5072605;28;20049;-82
2022/12/12 06:24:58;;;;;;;12.55;5.85;;;;;;;;;;5044399;28;20401;-82
2022/12/12 06:27:32;;;;;;;12.25;5.35;;;;;;;;;;5046126;28;20059;-83
2022/12/12 06:30:06;;;;;;;17.85;6.13;;;;;;;;;;5057135;28;20409;-83
2022/12/12 06:32:33;;;;;;;12.65;6.60;;;;;;;;;;5047325;28;20056;-82
2022/12/12 06:35:02;;;;;;;11.23;6.43;;;;;;;;;;5042443;28;20474;-82
2022/12/12 06:37:35;;;;;;;17.60;6.78;;;;;;;;;;5042925;28;20049;-83
2022/12/12 06:40:09;;;;;;;11.23;5.53;;;;;;;;;;5043871;28;20052;-82
2022/12/12 06:42:43;;;;;;;13.52;5.60;;;;;;;;;;5042765;28;20045;-82
2022/12/12 06:45:16;;;;;;;12.18;5.72;;;;;;;;;;5045280;28;20729;-83
2022/12/12 06:47:43;;;;;;;20.25;7.18;;;;;;;;;;5047498;28;20052;-82
2022/12/12 06:50:11;;;;;;;;;;;;;;;;;;5044107;28;20070;-82
2022/12/12 06:52:39;;;;;;;10.90;6.25;;;;;;;;;;5049380;28;19925;-83
2022/12/12 06:55:11;;;;;;;10.50;6.05;;;;;;;;;;5047602;28;20053;-83
2022/12/12 06:57:46;;;;;;;13.02;5.88;;;;;;;;;;5046373;28;20421;-83
2022/12/12 07:00:14;;;;;;;11.63;6.13;;;;;;;;;;5072611;28;20084;-83
2022/12/12 07:02:42;;;;;;;10.13;5.82;;;;;;;;;;5045888;28;20053;-82
2022/12/12 07:05:15;;;;;;;15.82;6.07;;;;;;;;;;5042069;28;20678;-83
2022/12/12 07:07:43;;;;;;;18.17;7.05;;;;;;;;;;5043599;28;20052;-82
2022/12/12 07:10:15;;;;;;;13.50;5.68;;;;;;;;;;5047512;28;20045;-83
2022/12/12 07:12:43;;;;;;;;;;;;;;;;;;5046464;28;20045;-82
2022/12/12 07:15:11;;;;;;;;;;;;;;;;;;5051585;28;20288;-82
2022/12/12 07:17:40;;;;;;;6.97;3.67;;;;;;;;;;5035612;28;19921;-83
2022/12/12 07:20:14;;;;;;;11.32;5.60;;;;;;;;;;5041318;28;20045;-84
2022/12/12 07:22:41;;;;;;;9.05;5.13;;;;;;;;;;5041870;28;20498;-83
2022/12/12 07:25:09;;;;;;;17.83;7.45;;;;;;;;;;5050317;28;20041;-82
2022/12/12 07:27:37;;;;;;;;;;;;;;;;;;5045669;28;20052;-83
2022/12/12 07:30:05;;;;;;;13.02;6.10;;;;;;;;;;5048035;28;19929;-83
2022/12/12 07:32:33;;;;;;;10.60;5.45;;;;;;;;;;5039393;28;20053;-83
2022/12/12 07:35:02;;;;;;;13.85;6.35;;;;;;;;;;5047767;28;20049;-82
2022/12/12 07:37:31;;;;;;;16.45;5.28;;;;;;;;;;5035333;28;20792;-83
2022/12/12 07:39:59;;;;;;;;;;;;;;;;;;5044569;28;20489;-83
2022/12/12 07:42:27;;;;;;;10.20;4.72;;;;;;;;;;5043686;28;19928;-83
2022/12/12 07:44:55;;;;;;;;;;;;;;;;;;5039387;28;20056;-85
2022/12/12 07:47:22;;;;;;;14.10;5.28;;;;;;;;;;5056854;28;19928;-84
2022/12/12 07:49:50;;;;;;;;;;;;;;;;;;5049477;28;20053;-83
2022/12/12 07:52:19;;;;;;;7.65;4.70;;;;;;;;;;5044123;28;19921;-82
2022/12/12 07:54:47;;;;;;;19.63;6.15;;;;;;;;;;5032698;28;20052;-82
2022/12/12 07:57:20;;;;;;;9.63;5.15;;;;;;;;;;5037376;28;20053;-83
2022/12/12 07:59:48;;;;;;;11.27;5.68;;;;;;;;;;5031969;28;20060;-85
2022/12/12 08:02:15;;;;;;;;;;;;;;;;;;5029278;28;20049;-85
2022/12/12 08:04:43;;;;;;;7.38;3.85;;;;;;;;;;5032319;28;19944;-85
2022/12/12 08:07:11;;;;;;;10.02;5.10;;;;;;;;;;5027681;28;20072;-84
2022/12/12 08:09:39;;;;;;;;;;;;;;;;;;5028949;28;21352;-84
2022/12/12 08:12:08;;;;;;;10.05;4.78;;;;;;;;;;5028781;28;19936;-86
2022/12/12 08:14:41;;;;;;;14.68;6.50;;;;;;;;;;5050123;28;20060;-84
2022/12/12 08:17:09;;;;;;;12.65;5.95;;;;;;;;;;5029244;28;20061;-84
2022/12/12 08:19:36;;;;;;;13.93;6.57;;;;;;;;;;5028317;28;20053;-85
2022/12/12 08:22:09;;;;;;;11.52;5.10;;;;;;;;;;5030409;28;20044;-83
2022/12/12 08:24:42;;;;;;;10.38;5.50;;;;;;;;;;5034358;28;20057;-86
2022/12/12 08:27:11;;;;;;;11.77;5.78;;;;;;;;;;5027807;28;20425;-84
2022/12/12 08:29:44;;;;;;;9.50;5.05;;;;;;;;;;5030187;28;21535;-84
2022/12/12 08:32:17;;;;;;;13.15;6.22;;;;;;;;;;5028134;28;20497;-83
2022/12/12 08:34:45;;;;;;;11.48;5.72;;;;;;;;;;5032425;28;20064;-84
2022/12/12 08:37:12;;;;;;;16.48;6.18;;;;;;;;;;5028833;28;20049;-84
2022/12/12 08:39:40;;;;;;;13.25;5.47;;;;;;;;;;5029850;28;20044;-85
2022/12/12 08:42:14;;;;;;;13.80;6.35;;;;;;;;;;5025521;28;20059;-85
2022/12/12 08:44:48;;;;;;;9.25;5.20;;;;;;;;;;5029969;28;20072;-85
2022/12/12 08:47:16;;;;;;;15.95;6.82;;;;;;;;;;5029614;28;20041;-85
2022/12/12 08:49:44;;;;;;;11.35;5.55;;;;;;;;;;5033298;28;20650;-85
2022/12/12 08:52:12;;;;;;;;;;;;;;;;;;5027958;28;20497;-87
2022/12/12 08:54:44;;;;;;;8.75;5.15;;;;;;;;;;5032010;28;20470;-85
2022/12/12 08:57:21;;;;;;;10.30;5.40;;;;;;;;;;5026118;28;20045;-87
2022/12/12 08:59:54;;;;;;;11.02;5.97;;;;;;;;;;5028033;28;20057;-86
2022/12/12 09:02:22;;;;;;;12.68;6.05;;;;;;;;;;5022107;28;20057;-86
2022/12/12 09:04:49;;;;;;;17.23;6.82;;;;;;;;;;5025122;28;20053;-86
2022/12/12 09:07:22;;;;;;;12.63;6.55;;;;;;;;;;5028297;28;20068;-85
2022/12/12 09:09:50;;;;;;;;;;;;;;;;;;5028512;28;20049;-85
2022/12/12 09:12:18;;;;;;;26.02;4.80;;;;;;;;;;5027084;28;19929;-85
2022/12/12 09:14:52;;;;;;;12.38;5.40;;;;;;;;;;5031348;28;20052;-85
2022/12/12 09:17:25;;;;;;;12.02;6.65;;;;;;;;;;5035672;28;20060;-85
2022/12/12 09:19:57;;;;;;;9.68;4.60;;;;;;;;;;5032300;28;20048;-85
2022/12/12 09:22:25;;;;;;;10.85;6.13;;;;;;;;;;5022891;28;20071;-85
2022/12/12 09:24:53;;;;;;;;;;;;;;;;;;5026645;28;20064;-86
2022/12/12 09:27:20;;;;;;;6.82;4.00;;;;;;;;;;5023348;28;19933;-86
2022/12/12 09:29:55;;;;;;;9.85;4.53;;;;;;;;;;5029046;28;20049;-84
2022/12/12 09:32:23;;;;;;;8.98;4.80;;;;;;;;;;5026337;28;20061;-87
2022/12/12 09:34:51;;;;;;;12.38;6.05;;;;;;;;;;5052802;28;20052;-85
2022/12/12 09:37:23;;;;;;;18.42;6.63;;;;;;;;;;5017921;28;20060;-85
2022/12/12 09:39:56;;;;;;;11.57;6.18;;;;;;;;;;5031000;28;20059;-85
2022/12/12 09:42:25;;;;;;;9.55;3.78;;;;;;;;;;5033955;28;20056;-85
2022/12/12 09:45:02;;;;;;;16.13;7.90;;;;;;;;;;5032334;28;20049;-85
2022/12/12 09:47:33;;;;;;;20.92;9.02;;;;;;;;;;5028472;28;20053;-85
2022/12/12 09:50:03;;;;;;;16.25;7.20;;;;;;;;;;5032548;28;20080;-85
2022/12/12 09:52:37;;;;;;;15.10;7.55;;;;;;;;;;5025811;28;20068;-86
2022/12/12 09:55:13;;;;;;;14.90;8.02;;;;;;;;;;5030860;28;21428;-85
2022/12/12 09:57:43;;;;;;;15.68;6.18;;;;;;;;;;5028038;28;20053;-85
2022/12/12 10:00:14;;;;;;;14.73;6.72;;;;;;;;;;5025362;28;20052;-86
2022/12/12 10:02:59;;;;;;;16.02;7.50;;;;;;;;;;5020767;28;20437;-85
2022/12/12 10:05:32;;;;;;;16.00;6.82;;;;;;;;;;5026073;28;20068;-85
2022/12/12 10:08:05;;;;;;;18.25;9.10;;;;;;;;;;5024032;28;20052;-85
2022/12/12 10:10:37;;;;;;;;;;;;;;;;;;5030161;28;20068;-86
2022/12/12 10:13:06;;;;;;;14.57;6.72;;;;;;;;;;5065056;28;19947;-85
2022/12/12 10:15:37;;;;;;;8.85;4.47;;;;;;;;;;5022277;28;20064;-86
2022/12/12 10:18:07;;;;;;;11.20;5.95;;;;;;;;;;5020556;28;20048;-85
2022/12/12 10:20:42;;;;;;;13.73;7.25;;;;;;;;;;5017339;28;20052;-86
2022/12/12 10:23:18;;;;;;;15.60;7.70;;;;;;;;;;5031389;28;20045;-84
2022/12/12 10:25:49;;;;;;;12.50;5.72;;;;;;;;;;5060878;28;20060;-84
2022/12/12 10:28:18;;;;;;;12.13;5.57;;;;;;;;;;5025051;28;20497;-85
2022/12/12 10:30:54;;;;;;;11.93;6.30;;;;;;;;;;5028956;28;20041;-85
2022/12/12 10:33:32;;;;;;;13.57;6.30;;;;;;;;;;5024870;28;20424;-86
2022/12/12 10:36:03;;;;;;;12.43;5.88;;;;;;;;;;5029230;28;20045;-86
2022/12/12 10:38:35;;;;;;;13.18;4.93;;;;;;;;;;5032306;28;20076;-86
2022/12/12 10:41:11;;;;;;;11.35;6.10;;;;;;;;;;5030608;28;20072;-85
2022/12/12 10:43:42;;;;;;;9.68;5.38;;;;;;;;;;5023439;28;20328;-85
2022/12/12 10:46:21;;;;;;;9.85;4.82;;;;;;;;;;5031582;28;20304;-85
2022/12/12 10:48:53;;;;;;;12.23;6.28;;;;;;;;;;5026682;28;20048;-85
2022/12/12 10:51:21;;;;;;;;;;;;;;;;;;5030998;28;20052;-86
2022/12/12 10:53:49;;;;;;;6.57;3.80;;;;;;;;;;5030307;28;19936;-86
2022/12/12 10:56:24;;;;;;;10.48;4.88;;;;;;;;;;5013512;28;21503;-87
2022/12/12 10:58:52;;;;;;;11.70;4.88;;;;;;;;;;5019991;28;20048;-85
2022/12/12 11:01:29;;;;;;;11.10;5.22;;;;;;;;;;5015038;28;20052;-85
2022/12/12 11:03:58;;;;;;;8.60;3.83;;;;;;;;;;5027854;28;20057;-85
2022/12/12 11:06:32;;;;;;;9.02;4.85;;;;;;;;;;5016786;28;20060;-85
2022/12/12 11:09:06;;;;;;;11.48;5.28;;;;;;;;;;5010648;28;20053;-85
2022/12/12 11:11:38;;;;;;;13.68;5.47;;;;;;;;;;5015465;28;20060;-85
2022/12/12 11:14:06;;;;;;;;;;;;;;;;;;5016487;28;20064;-85
2022/12/12 11:16:34;;;;;;;;;;;;;;;;;;5032011;28;19936;-85
2022/12/12 11:19:05;;;;;;;5.70;3.28;;;;;;;;;;5026506;28;19929;-85
2022/12/12 11:21:38;;;;;;;9.07;5.47;;;;;;;;;;5028424;28;20060;-85
2022/12/12 11:24:08;;;;;;;9.98;4.90;;;;;;;;;;5025971;28;20061;-85
2022/12/12 11:26:43;;;;;;;13.25;5.20;;;;;;;;;;5021809;28;20476;-85
2022/12/12 11:29:29;;;;;;;8.57;4.03;;;;;;;;;;5032847;28;20049;-85
2022/12/12 11:32:03;;;;;;;8.57;4.97;;;;;;;;;;5032451;28;20071;-85
2022/12/12 11:34:33;;;;;;;14.82;6.07;;;;;;;;;;5032825;28;20057;-85
2022/12/12 11:37:02;;;;;;;9.73;5.20;;;;;;;;;;5026357;28;20045;-85
2022/12/12 11:39:40;;;;;;;10.73;4.85;;;;;;;;;;5028902;28;20068;-86
2022/12/12 11:42:17;;;;;;;12.15;6.25;;;;;;;;;;5029755;28;20059;-85
2022/12/12 11:44:57;;;;;;;11.27;5.68;;;;;;;;;;5032996;28;20056;-85
2022/12/12 11:47:26;;;;;;;8.23;4.60;;;;;;;;;;5021919;28;20056;-86
2022/12/12 11:50:00;;;;;;;9.32;4.70;;;;;;;;;;5033314;28;20060;-85
2022/12/12 11:52:33;;;;;;;13.13;4.68;;;;;;;;;;5025985;28;20056;-89
2022/12/12 11:55:00;;;;;;;11.57;5.28;;;;;;;;;;5023436;28;20057;-84
2022/12/12 11:57:28;;;;;;;;;;;;;;;;;;5020771;28;21705;-83
2022/12/12 12:00:02;;;;;;;10.15;4.43;;;;;;;;;;5027091;28;19928;-86
2022/12/12 12:02:59;;;;;;;8.63;4.95;;;;;;;;;;5025373;28;20071;-85
2022/12/12 12:05:39;;;;;;;7.65;4.03;;;;;;;;;;4968181;28;20057;-86
2022/12/12 12:08:13;;;;;;;7.88;4.90;;;;;;;;;;5026731;28;20068;-86
2022/12/12 12:10:48;;;;;;;10.00;5.00;;;;;;;;;;5027868;28;20045;-86
2022/12/12 12:13:22;;;;;;;9.18;3.72;;;;;;;;;;5014172;28;20057;-86
2022/12/12 12:15:53;;;;;;;8.27;4.85;;;;;;;;;;5030642;28;20056;-86
2022/12/12 12:18:34;;;;;;;10.70;4.97;;;;;;;;;;5025725;28;20057;-86
2022/12/12 12:21:23;;;;;;;11.02;5.88;;;;;;;;;;5028248;28;20057;-85
2022/12/12 12:23:54;;;;;;;11.55;5.45;;;;;;;;;;5030173;28;20055;-86
2022/12/12 12:26:25;;;;;;;12.57;5.20;;;;;;;;;;5027554;28;20091;-86
2022/12/12 12:29:11;;;;;;;11.20;5.68;;;;;;;;;;5028633;28;20049;-85
2022/12/12 12:31:53;;;;;;;11.35;5.32;;;;;;;;;;4994052;28;20425;-87
2022/12/12 12:34:30;;;;;;;8.93;4.78;;;;;;;;;;5026712;28;20083;-85
2022/12/12 12:37:11;;;;;;;8.27;5.03;;;;;;;;;;5029037;28;20314;-85
2022/12/12 12:39:57;;;;;;;11.15;5.32;;;;;;;;;;5023944;28;20417;-84
2022/12/12 12:42:41;;;;;;;12.18;6.45;;;;;;;;;;5026877;28;20064;-85
2022/12/12 12:45:15;;;;;;;11.75;5.03;;;;;;;;;;5027846;28;20052;-83
2022/12/12 12:47:51;;;;;;;15.90;5.57;;;;;;;;;;5027025;28;20061;-85
2022/12/12 12:50:22;;;;;;;10.57;5.75;;;;;;;;;;5032347;28;20060;-85
2022/12/12 12:52:59;;;;;;;11.32;5.53;;;;;;;;;;5036066;28;20064;-83
2022/12/12 12:55:29;;;;;;;13.30;5.55;;;;;;;;;;5029610;28;20607;-84
2022/12/12 12:58:05;;;;;;;11.35;5.63;;;;;;;;;;5032361;28;20059;-85
2022/12/12 13:00:38;;;;;;;13.30;6.05;;;;;;;;;;5030675;28;20060;-84
2022/12/12 13:03:07;;;;;;;13.93;6.05;;;;;;;;;;5025583;28;20052;-84
2022/12/12 13:05:39;;;;;;;11.05;4.70;;;;;;;;;;5031819;28;20053;-85
2022/12/12 13:08:18;;;;;;;10.88;6.38;;;;;;;;;;5026308;28;20063;-86
2022/12/12 13:10:47;;;;;;;11.45;5.80;;;;;;;;;;5029271;28;20048;-84
2022/12/12 13:13:22;;;;;;;12.35;5.22;;;;;;;;;;5029319;28;20065;-86
2022/12/12 13:15:52;;;;;;;11.07;5.00;;;;;;;;;;5028573;28;20052;-84
2022/12/12 13:18:20;;;;;;;9.93;5.05;;;;;;;;;;5031834;28;20047;-84
2022/12/12 13:20:58;;;;;;;14.40;5.32;;;;;;;;;;5065427;28;21322;-88
2022/12/12 13:23:37;;;;;;;11.93;5.60;;;;;;;;;;5035114;28;20509;-85
2022/12/12 13:26:09;;;;;;;9.30;5.00;;;;;;;;;;5031578;28;20060;-83
2022/12/12 13:28:46;;;;;;;9.10;4.63;;;;;;;;;;5032434;28;20041;-84
2022/12/12 13:31:30;;;;;;;10.43;5.68;;;;;;;;;;5030292;28;20049;-86
2022/12/12 13:34:01;;;;;;;10.43;5.25;;;;;;;;;;5033879;28;20068;-85
2022/12/12 13:36:32;;;;;;;11.27;4.88;;;;;;;;;;5069213;28;20414;-85
2022/12/12 13:39:07;;;;;;;9.55;4.47;;;;;;;;;;5030891;28;20044;-86
2022/12/12 13:41:54;;;;;;;12.18;4.88;;;;;;;;;;5034766;28;20084;-85
2022/12/12 13:44:35;;;;;;;10.77;5.63;;;;;;;;;;5033903;28;20056;-83
2022/12/12 13:47:14;;;;;;;12.82;5.80;;;;;;;;;;5033087;28;20049;-86
2022/12/12 13:49:47;;;;;;;12.77;5.80;;;;;;;;;;5030660;28;20041;-85
2022/12/12 13:52:23;;;;;;;11.48;5.57;;;;;;;;;;5030255;28;20060;-85
2022/12/12 13:55:11;;;;;;;11.95;5.47;;;;;;;;;;5057567;28;20728;-84
2022/12/12 13:58:05;;;;;;;9.77;4.93;;;;;;;;;;5027738;28;20053;-86
2022/12/12 14:00:39;;;;;;;9.50;5.20;;;;;;;;;;5031506;28;20547;-84
2022/12/12 14:03:17;;;;;;;11.18;5.35;;;;;;;;;;5027445;28;20052;-83
2022/12/12 14:05:46;;;;;;;11.00;5.05;;;;;;;;;;5035297;28;20053;-85
2022/12/12 14:08:21;;;;;;;11.65;5.38;;;;;;;;;;5026268;28;20057;-85
2022/12/12 14:10:57;;;;;;;10.45;5.47;;;;;;;;;;5028030;28;20060;-84
2022/12/12 14:13:46;;;;;;;9.70;3.75;;;;;;;;;;5028546;28;20080;-84
2022/12/12 14:16:20;;;;;;;11.73;5.40;;;;;;;;;;5052250;28;20517;-84
2022/12/12 14:19:10;;;;;;;11.38;5.07;;;;;;;;;;5029273;28;20515;-84
2022/12/12 14:21:39;;;;;;;11.27;5.10;;;;;;;;;;5023622;28;20057;-84
2022/12/12 14:24:31;;;;;;;11.55;4.88;;;;;;;;;;5027170;28;20064;-88
2022/12/12 14:26:59;;;;;;;11.23;6.22;;;;;;;;;;5035017;28;20057;-84
2022/12/12 14:29:34;;;;;;;13.43;6.45;;;;;;;;;;5030893;28;20045;-85
2022/12/12 14:32:16;;;;;;;11.10;5.55;;;;;;;;;;5030584;28;20060;-85
2022/12/12 14:34:53;;;;;;;11.05;5.40;;;;;;;;;;5033750;28;20053;-86
2022/12/12 14:37:33;;;;;;;7.47;4.07;;;;;;;;;;5030840;28;20045;-85
2022/12/12 14:40:14;;;;;;;10.43;5.18;;;;;;;;;;5027255;28;20157;-85
2022/12/12 14:42:49;;;;;;;8.23;5.05;;;;;;;;;;5029647;28;20068;-83
2022/12/12 14:45:26;;;;;;;14.45;6.70;;;;;;;;;;5033365;28;20064;-85
2022/12/12 14:48:16;;;;;;;14.30;6.32;;;;;;;;;;5030092;28;20061;-85
2022/12/12 14:50:51;;;;;;;11.30;5.50;;;;;;;;;;5034786;28;20041;-85
2022/12/12 14:53:24;;;;;;;11.75;5.82;;;;;;;;;;5029131;28;20805;-85
2022/12/12 14:55:53;;;;;;;16.10;6.03;;;;;;;;;;5026286;28;20057;-85
2022/12/12 14:58:23;;;;;;;11.90;5.32;;;;;;;;;;5033390;28;20052;-85
2022/12/12 15:00:53;;;;;;;13.75;5.22;;;;;;;;;;5060184;28;20060;-86
2022/12/12 15:03:26;;;;;;;10.82;5.93;;;;;;;;;;5029250;28;20750;-85
2022/12/12 15:05:58;;;;;;;;;;;;;;;;;;5035860;28;20135;-86
2022/12/12 15:08:26;;;;;;;11.40;5.00;;;;;;;;;;5033928;28;20289;-86
2022/12/12 15:10:54;;;;;;;;;;;;;;;;;;5032383;28;20040;-86
2022/12/12 15:13:21;;;;;;;;;;;;;;;;;;5032786;28;19936;-86
2022/12/12 15:15:56;;;;;;;7.03;3.90;;;;;;;;;;5028950;28;20312;-87
2022/12/12 15:18:23;;;;;;;8.40;5.70;;;;;;;;;;5027364;28;20056;-85
2022/12/12 15:20:51;;;;;;;;;;;;;;;;;;5030989;28;20120;-85
2022/12/12 15:23:19;;;;;;;11.35;5.40;;;;;;;;;;5026681;28;19929;-85
2022/12/12 15:25:53;;;;;;;9.20;4.70;;;;;;;;;;5030730;28;20546;-86
2022/12/12 15:28:23;;;;;;;12.20;5.82;;;;;;;;;;5031118;28;20085;-86
2022/12/12 15:30:58;;;;;;;9.35;4.57;;;;;;;;;;5028655;28;20057;-85